createdAt,value
2023-01-26T00:02:00.815Z,29.40
2023-01-26T00:05:04.010Z,28.73
2023-01-26T00:08:07.515Z,26.80
2023-01-26T00:11:12.453Z,26.07
2023-01-26T00:14:15.662Z,25.63
2023-01-26T00:17:26.979Z,26.60
2023-01-26T00:20:31.167Z,26.80
2023-01-26T00:23:35.929Z,28.83
2023-01-26T00:26:39.088Z,25.90
2023-01-26T00:29:42.280Z,25.10
2023-01-26T00:32:46.779Z,23.63
2023-01-26T00:35:55.699Z,23.03
2023-01-26T00:38:58.865Z,25.50
2023-01-26T00:42:09.858Z,28.90
2023-01-26T00:45:13.101Z,23.20
2023-01-26T00:48:17.965Z,22.80
2023-01-26T00:51:21.113Z,27.70
2023-01-26T00:54:24.357Z,25.80
2023-01-26T00:57:27.532Z,26.53
2023-01-26T01:00:31.870Z,26.20
2023-01-26T01:03:36.469Z,22.03
2023-01-26T01:06:39.635Z,22.13
2023-01-26T01:09:42.783Z,21.93
2023-01-26T01:12:46.247Z,17.43
2023-01-26T01:15:49.377Z,19.87
2023-01-26T01:18:55.698Z,27.20
2023-01-26T01:21:58.840Z,23.23
2023-01-26T01:25:02.076Z,25.20
2023-01-26T01:28:05.521Z,19.70
2023-01-26T01:31:10.119Z,23.53
2023-01-26T01:34:14.689Z,20.23
2023-01-26T01:37:18.137Z,20.90
2023-01-26T01:40:21.417Z,22.20
2023-01-26T01:43:25.604Z,24.20
2023-01-26T01:46:33.564Z,21.00
2023-01-26T01:49:44.116Z,19.13
2023-01-26T01:52:47.963Z,19.03
2023-01-26T01:55:51.931Z,21.87
2023-01-26T01:58:58.992Z,19.30
2023-01-26T02:02:02.498Z,20.00
2023-01-26T02:05:14.356Z,19.27
2023-01-26T02:08:20.177Z,20.43
2023-01-26T02:11:28.201Z,21.53
2023-01-26T02:14:33.271Z,20.63
2023-01-26T02:17:36.782Z,20.10
2023-01-26T02:20:46.601Z,23.03
2023-01-26T02:23:59.563Z,20.97
2023-01-26T02:27:04.404Z,21.50
2023-01-26T02:30:09.260Z,21.87
2023-01-26T02:33:16.619Z,25.13
2023-01-26T02:36:23.312Z,24.80
2023-01-26T02:39:39.304Z,20.20
2023-01-26T02:42:44.502Z,22.93
2023-01-26T02:45:48.059Z,21.93
2023-01-26T02:49:08.405Z,21.07
2023-01-26T02:52:11.577Z,22.73
2023-01-26T02:55:25.212Z,26.80
2023-01-26T02:58:29.854Z,25.07
2023-01-26T03:01:33.004Z,22.00
2023-01-26T03:04:36.162Z,22.90
2023-01-26T03:07:39.342Z,26.00
2023-01-26T03:10:42.702Z,21.37
2023-01-26T03:13:47.206Z,28.10
2023-01-26T03:16:50.390Z,24.00
2023-01-26T03:20:11.406Z,23.23
2023-01-26T03:23:32.295Z,26.60
2023-01-26T03:26:53.374Z,27.87
2023-01-26T03:29:59.117Z,24.23
2023-01-26T03:33:02.262Z,24.40
2023-01-26T03:36:06.064Z,23.27
2023-01-26T03:39:09.221Z,22.73
2023-01-26T03:42:29.707Z,27.30
2023-01-26T03:45:51.927Z,26.40
2023-01-26T03:49:12.268Z,25.53
2023-01-26T03:52:32.623Z,24.30
2023-01-26T03:55:52.855Z,22.10
2023-01-26T03:58:57.094Z,22.97
2023-01-26T04:02:19.297Z,25.07
2023-01-26T04:05:39.776Z,24.90
2023-01-26T04:08:42.880Z,27.13
2023-01-26T04:11:46.185Z,19.23
2023-01-26T04:15:06.606Z,25.97
2023-01-26T04:18:28.487Z,24.10
2023-01-26T04:21:33.456Z,20.30
2023-01-26T04:24:36.621Z,25.83
2023-01-26T04:27:40.145Z,22.53
2023-01-26T04:30:43.385Z,22.17
2023-01-26T04:33:48.295Z,25.53
2023-01-26T04:36:51.533Z,22.97
2023-01-26T04:39:54.676Z,22.83
2023-01-26T04:42:57.820Z,23.67
2023-01-26T04:46:01.891Z,22.50
2023-01-26T04:49:06.524Z,23.37
2023-01-26T04:52:09.786Z,26.00
2023-01-26T04:55:12.968Z,23.23
2023-01-26T04:58:16.101Z,25.37
2023-01-26T05:01:20.047Z,25.33
2023-01-26T05:04:24.696Z,25.37
2023-01-26T05:07:27.828Z,26.73
2023-01-26T05:10:31.021Z,25.43
2023-01-26T05:13:35.556Z,27.10
2023-01-26T05:16:38.737Z,26.50
2023-01-26T05:19:43.279Z,26.90
2023-01-26T05:22:46.403Z,23.23
2023-01-26T05:25:49.558Z,28.43
2023-01-26T05:28:52.690Z,26.70
2023-01-26T05:31:55.897Z,24.80
2023-01-26T05:35:00.505Z,23.83
2023-01-26T05:38:03.693Z,23.37
2023-01-26T05:41:08.718Z,24.47
2023-01-26T05:44:12.061Z,28.10
2023-01-26T05:47:15.193Z,26.50
2023-01-26T05:50:19.865Z,25.77
2023-01-26T05:53:23.041Z,25.63
2023-01-26T05:56:26.194Z,26.47
2023-01-26T05:59:29.416Z,25.57
2023-01-26T06:02:32.714Z,24.60
2023-01-26T06:05:38.892Z,24.60
2023-01-26T06:08:42.054Z,23.37
2023-01-26T06:11:45.200Z,27.20
2023-01-26T06:14:48.737Z,23.13
2023-01-26T06:17:51.884Z,23.03
2023-01-26T06:21:00.207Z,25.23
2023-01-26T06:24:04.046Z,24.53
2023-01-26T06:27:13.014Z,26.40
2023-01-26T06:30:16.623Z,22.80
2023-01-26T06:33:19.852Z,26.43
2023-01-26T06:36:24.536Z,23.87
2023-01-26T06:39:27.693Z,22.70
2023-01-26T06:42:30.823Z,23.60
2023-01-26T06:45:34.171Z,25.30
2023-01-26T06:48:37.642Z,28.47
2023-01-26T06:51:54.835Z,26.10
2023-01-26T06:55:00.936Z,26.67
2023-01-26T06:58:04.357Z,24.13
2023-01-26T07:01:07.661Z,24.50
2023-01-26T07:04:10.970Z,23.33
2023-01-26T07:07:15.667Z,22.97
2023-01-26T07:10:18.977Z,25.30
2023-01-26T07:13:22.090Z,22.57
2023-01-26T07:16:25.319Z,27.77
2023-01-26T07:19:30.424Z,25.70
2023-01-26T07:22:34.967Z,23.67
2023-01-26T07:25:38.143Z,31.20
2023-01-26T07:28:41.463Z,21.30
2023-01-26T07:31:45.149Z,24.00
2023-01-26T07:34:49.018Z,26.03
2023-01-26T07:37:53.523Z,24.33
2023-01-26T07:40:57.131Z,24.90
2023-01-26T07:44:00.441Z,26.43
2023-01-26T07:47:03.614Z,25.53
2023-01-26T07:50:07.844Z,27.83
2023-01-26T07:53:12.963Z,25.60
2023-01-26T07:56:19.127Z,27.70
2023-01-26T07:59:22.341Z,26.33
2023-01-26T08:02:25.507Z,28.63
2023-01-26T08:05:28.689Z,25.00
2023-01-26T08:08:33.432Z,23.53
2023-01-26T08:11:36.720Z,27.10
2023-01-26T08:14:46.822Z,40.20
2023-01-26T08:17:51.399Z,28.77
2023-01-26T08:20:57.069Z,27.47
2023-01-26T08:24:03.538Z,30.37
2023-01-26T08:27:06.750Z,33.30
2023-01-26T08:30:11.509Z,33.73
2023-01-26T08:33:15.085Z,34.80
2023-01-26T08:36:21.940Z,27.70
2023-01-26T08:39:26.762Z,24.43
2023-01-26T08:42:30.063Z,26.90
2023-01-26T08:45:33.668Z,31.27
2023-01-26T08:48:37.552Z,28.83
2023-01-26T08:51:40.722Z,27.00
2023-01-26T08:54:45.324Z,30.40
2023-01-26T08:57:52.840Z,32.50
2023-01-26T09:00:56.013Z,30.73
2023-01-26T09:03:59.251Z,32.63
2023-01-26T09:07:02.456Z,30.80
2023-01-26T09:10:09.042Z,29.97
2023-01-26T09:13:12.616Z,28.13
2023-01-26T09:16:20.005Z,25.47
2023-01-26T09:19:23.370Z,32.13
2023-01-26T09:22:26.604Z,25.30
2023-01-26T09:25:31.319Z,26.17
2023-01-26T09:28:34.614Z,31.53
2023-01-26T09:31:37.915Z,22.97
2023-01-26T09:34:41.238Z,30.60
2023-01-26T09:37:45.049Z,31.20
2023-01-26T09:41:01.564Z,25.50
2023-01-26T09:44:09.251Z,25.17
2023-01-26T09:47:20.190Z,24.10
2023-01-26T09:50:27.568Z,26.87
2023-01-26T09:53:42.223Z,62.13
2023-01-26T09:56:46.955Z,29.60
2023-01-26T09:59:54.991Z,34.63
2023-01-26T10:03:11.041Z,30.83
2023-01-26T10:06:22.670Z,28.53
2023-01-26T10:09:29.818Z,26.90
2023-01-26T10:12:37.503Z,27.60
2023-01-26T10:15:43.769Z,30.40
2023-01-26T10:18:55.009Z,25.90
2023-01-26T10:22:03.705Z,29.33
2023-01-26T10:25:16.213Z,27.73
2023-01-26T10:28:25.152Z,26.20
2023-01-26T10:31:30.824Z,26.67
2023-01-26T10:34:34.380Z,29.27
2023-01-26T10:37:37.729Z,25.87
2023-01-26T10:40:45.521Z,28.80
2023-01-26T10:43:54.638Z,26.80
2023-01-26T10:47:06.450Z,29.47
2023-01-26T10:50:23.187Z,28.73
2023-01-26T10:53:29.797Z,32.00
2023-01-26T10:56:36.354Z,41.00
2023-01-26T10:59:46.184Z,35.40
2023-01-26T11:02:52.643Z,29.07
2023-01-26T11:06:08.161Z,26.20
2023-01-26T11:09:18.136Z,27.63
2023-01-26T11:12:22.664Z,22.50
2023-01-26T11:15:30.805Z,25.27
2023-01-26T11:18:43.683Z,24.40
2023-01-26T11:21:51.832Z,18.63
2023-01-26T11:25:04.806Z,17.00
2023-01-26T11:28:28.352Z,18.50
2023-01-26T11:31:44.271Z,16.70
2023-01-26T11:34:56.965Z,18.90
2023-01-26T11:38:11.446Z,15.03
2023-01-26T11:41:26.381Z,15.60
2023-01-26T11:44:55.610Z,16.10
2023-01-26T11:48:12.333Z,18.00
2023-01-26T11:51:28.587Z,17.07
2023-01-26T11:54:57.317Z,19.37
2023-01-26T11:58:18.593Z,19.70
2023-01-26T12:01:28.972Z,22.23
2023-01-26T12:04:45.316Z,18.83
2023-01-26T12:07:55.844Z,17.90
2023-01-26T12:11:21.344Z,16.33
2023-01-26T12:14:29.457Z,19.67
2023-01-26T12:17:43.488Z,16.30
2023-01-26T12:20:52.353Z,17.87
2023-01-26T12:24:00.263Z,19.30
2023-01-26T12:27:09.844Z,14.83
2023-01-26T12:30:27.609Z,18.37
2023-01-26T12:33:32.369Z,19.77
2023-01-26T12:36:46.155Z,18.33
2023-01-26T12:39:55.057Z,17.93
2023-01-26T12:43:06.906Z,15.93
2023-01-26T12:46:11.464Z,19.30
2023-01-26T12:49:20.957Z,16.10
2023-01-26T12:52:31.495Z,14.57
2023-01-26T12:55:42.030Z,17.97
2023-01-26T12:58:47.722Z,20.33
2023-01-26T13:01:50.921Z,19.70
2023-01-26T13:04:54.424Z,17.63
2023-01-26T13:07:59.254Z,18.03
2023-01-26T13:11:04.717Z,23.63
2023-01-26T13:14:36.351Z,19.40
2023-01-26T13:17:51.671Z,22.10
2023-01-26T13:20:54.842Z,20.57
2023-01-26T13:23:59.407Z,21.40
2023-01-26T13:27:02.785Z,19.70
2023-01-26T13:30:50.384Z,23.70
2023-01-26T13:33:53.859Z,25.67
2023-01-26T13:37:00.850Z,22.77
2023-01-26T13:40:15.503Z,18.87
2023-01-26T13:43:27.542Z,20.43
2023-01-26T13:46:36.186Z,22.37
2023-01-26T13:49:40.991Z,20.93
2023-01-26T13:52:44.364Z,17.20
2023-01-26T13:55:56.228Z,22.70
2023-01-26T13:59:08.409Z,15.30
2023-01-26T14:02:22.799Z,17.10
2023-01-26T14:05:26.143Z,17.93
2023-01-26T14:08:30.819Z,18.03
2023-01-26T14:11:35.855Z,15.47
2023-01-26T14:14:39.332Z,20.30
2023-01-26T14:17:51.233Z,22.37
2023-01-26T14:21:00.663Z,17.10
2023-01-26T14:24:04.096Z,15.27
2023-01-26T14:27:36.526Z,19.73
2023-01-26T14:30:39.780Z,18.23
2023-01-26T14:33:43.335Z,19.70
2023-01-26T14:45:06.155Z,19.80
2023-01-26T14:48:14.532Z,20.33
2023-01-26T14:51:21.691Z,21.23
2023-01-26T14:54:30.507Z,30.07
2023-01-26T14:57:34.667Z,27.90
2023-01-26T15:00:39.976Z,30.47
2023-01-26T15:03:43.302Z,36.30
2023-01-26T15:06:46.777Z,30.60
2023-01-26T15:09:53.966Z,25.90
2023-01-26T15:12:59.143Z,34.10
2023-01-26T15:16:06.225Z,35.00
2023-01-26T15:19:24.529Z,33.40
2023-01-26T15:22:28.325Z,27.60
2023-01-26T15:25:34.458Z,22.37
2023-01-26T15:28:38.920Z,27.00
2023-01-26T15:31:44.754Z,27.80
2023-01-26T15:34:48.112Z,27.13
2023-01-26T15:38:00.896Z,22.30
2023-01-26T15:41:04.085Z,23.67
2023-01-26T15:44:10.863Z,21.03
2023-01-26T15:47:15.578Z,22.80
2023-01-26T15:50:27.880Z,23.70
2023-01-26T15:53:31.492Z,22.00
2023-01-26T15:56:34.985Z,20.50
2023-01-26T15:59:38.486Z,20.27
2023-01-26T16:02:43.251Z,18.97
2023-01-26T16:05:47.978Z,20.97
2023-01-26T16:08:51.451Z,24.37
2023-01-26T16:11:54.708Z,19.23
2023-01-26T16:14:57.912Z,21.10
2023-01-26T16:18:02.447Z,23.73
2023-01-26T16:21:16.788Z,27.30
2023-01-26T16:24:19.964Z,22.77
2023-01-26T16:27:23.125Z,21.10
2023-01-26T16:30:27.517Z,22.60
2023-01-26T16:33:32.441Z,21.87
2023-01-26T16:36:35.927Z,19.83
2023-01-26T16:39:39.101Z,20.10
2023-01-26T16:42:44.931Z,22.93
2023-01-26T16:45:48.139Z,18.60
2023-01-26T16:48:53.306Z,20.40
2023-01-26T16:51:56.519Z,27.70
2023-01-26T16:54:59.664Z,20.87
2023-01-26T16:58:03.475Z,21.70
2023-01-26T17:01:07.896Z,24.73
2023-01-26T17:04:15.403Z,20.73
2023-01-26T17:07:18.647Z,21.13
2023-01-26T17:10:22.622Z,24.63
2023-01-26T17:13:25.920Z,23.20
2023-01-26T17:16:32.194Z,20.63
2023-01-26T17:19:37.074Z,23.10
2023-01-26T17:22:40.505Z,23.47
2023-01-26T17:25:43.705Z,22.60
2023-01-26T17:28:47.737Z,20.37
2023-01-26T17:31:52.375Z,17.23
2023-01-26T17:34:57.799Z,19.97
2023-01-26T17:38:00.972Z,21.50
2023-01-26T17:41:05.345Z,25.47
2023-01-26T17:44:08.899Z,21.33
2023-01-26T17:47:12.652Z,17.17
2023-01-26T17:50:18.569Z,19.10
2023-01-26T17:53:24.459Z,21.07
2023-01-26T17:56:27.905Z,16.67
2023-01-26T17:59:31.367Z,18.47
2023-01-26T18:02:35.045Z,15.83
2023-01-26T18:05:39.768Z,18.57
2023-01-26T18:08:44.353Z,16.50
2023-01-26T18:11:50.161Z,18.90
2023-01-26T18:14:55.388Z,14.50
2023-01-26T18:17:59.850Z,20.43
2023-01-26T18:21:15.461Z,15.67
2023-01-26T18:24:19.209Z,17.20
2023-01-26T18:27:24.584Z,16.70
2023-01-26T18:30:31.187Z,16.50
2023-01-26T18:33:36.290Z,15.70
2023-01-26T18:36:42.293Z,13.43
2023-01-26T18:39:46.113Z,16.70
2023-01-26T18:42:50.844Z,22.30
2023-01-26T18:45:55.543Z,15.77
2023-01-26T18:49:02.102Z,16.27
2023-01-26T18:52:07.675Z,14.27
2023-01-26T18:55:12.697Z,14.07
2023-01-26T18:58:18.609Z,15.53
2023-01-26T19:01:23.897Z,13.70
2023-01-26T19:04:28.392Z,12.57
2023-01-26T19:07:35.270Z,15.33
2023-01-26T19:10:42.493Z,18.23
2023-01-26T19:13:49.293Z,15.13
2023-01-26T19:16:54.499Z,18.33
2023-01-26T19:19:58.431Z,16.33
2023-01-26T19:23:05.180Z,13.70
2023-01-26T19:26:14.062Z,14.20
2023-01-26T19:29:19.581Z,13.23
2023-01-26T19:32:23.862Z,15.43
2023-01-26T19:35:28.371Z,14.30
2023-01-26T19:38:34.487Z,14.13
2023-01-26T19:41:40.368Z,15.30
2023-01-26T19:44:44.556Z,16.97
2023-01-26T19:47:49.410Z,18.53
2023-01-26T19:51:05.783Z,19.50
2023-01-26T19:54:11.250Z,13.53
2023-01-26T19:57:16.493Z,16.17
2023-01-26T20:00:22.631Z,16.00
2023-01-26T20:03:26.877Z,14.37
2023-01-26T20:06:33.812Z,15.70
2023-01-26T20:09:40.593Z,17.90
2023-01-26T20:12:44.870Z,10.60
2023-01-26T20:15:49.641Z,12.60
2023-01-26T20:18:53.962Z,11.40
2023-01-26T20:21:59.236Z,15.67
2023-01-26T20:25:07.005Z,14.90
2023-01-26T20:28:12.182Z,12.83
2023-01-26T20:31:20.576Z,17.30
2023-01-26T20:34:26.244Z,18.73
2023-01-26T20:37:30.832Z,14.93
2023-01-26T20:40:40.084Z,14.03
2023-01-26T20:43:58.754Z,20.20
2023-01-26T20:47:05.954Z,16.87
2023-01-26T20:50:11.025Z,14.77
2023-01-26T20:53:15.591Z,12.23
2023-01-26T20:56:25.228Z,14.67
2023-01-26T20:59:30.442Z,11.50
2023-01-26T21:02:35.194Z,11.43
2023-01-26T21:05:41.039Z,12.27
2023-01-26T21:08:45.476Z,17.10
2023-01-26T21:11:50.730Z,12.77
2023-01-26T21:14:54.553Z,14.60
2023-01-26T21:17:58.145Z,13.87
2023-01-26T21:21:04.433Z,14.90
2023-01-26T21:24:09.024Z,12.37
2023-01-26T21:27:14.638Z,14.60
2023-01-26T21:30:18.627Z,14.77
2023-01-26T21:33:22.315Z,13.33
2023-01-26T21:36:28.240Z,17.83
2023-01-26T21:39:31.673Z,15.93
2023-01-26T21:42:37.388Z,17.67
2023-01-26T21:45:56.149Z,18.37
2023-01-26T21:48:59.831Z,19.50
2023-01-26T21:52:20.228Z,18.83
2023-01-26T21:55:23.553Z,19.50
2023-01-26T21:58:45.893Z,17.20
2023-01-26T22:01:51.118Z,18.90
2023-01-26T22:04:54.427Z,16.93
2023-01-26T22:07:57.637Z,15.93
2023-01-26T22:11:00.835Z,14.40
2023-01-26T22:14:05.520Z,12.83
2023-01-26T22:17:08.968Z,18.20
2023-01-26T22:20:14.294Z,15.67
2023-01-26T22:23:17.632Z,15.07
2023-01-26T22:26:22.281Z,15.60
2023-01-26T22:29:26.926Z,13.50
2023-01-26T22:32:30.193Z,19.50
2023-01-26T22:35:34.349Z,22.17
2023-01-26T22:38:38.654Z,18.00
2023-01-26T22:41:41.860Z,13.10
2023-01-26T22:44:46.570Z,16.23
2023-01-26T22:47:49.945Z,15.97
2023-01-26T22:50:53.105Z,17.87
2023-01-26T22:53:57.777Z,16.43
2023-01-26T22:57:00.948Z,16.73
2023-01-26T23:00:07.256Z,15.23
2023-01-26T23:03:10.421Z,27.70
2023-01-26T23:06:15.306Z,18.70
2023-01-26T23:09:18.523Z,17.60
2023-01-26T23:12:21.745Z,24.00
2023-01-26T23:15:26.396Z,15.67
2023-01-26T23:18:29.921Z,17.90
2023-01-26T23:21:33.066Z,17.63
2023-01-26T23:24:36.342Z,17.60
2023-01-26T23:27:39.525Z,17.10
2023-01-26T23:30:44.142Z,16.80
2023-01-26T23:33:47.706Z,15.73
2023-01-26T23:36:50.963Z,16.10
2023-01-26T23:39:54.979Z,16.50
2023-01-26T23:43:15.421Z,14.57
2023-01-26T23:46:20.923Z,17.17
2023-01-26T23:49:24.329Z,18.90
2023-01-26T23:52:27.452Z,18.70
2023-01-26T23:55:30.682Z,20.00
2023-01-26T23:58:33.929Z,17.60
